sensor_id;sensor_type;location;lat;lon;timestamp;P1;durP1;ratioP1;P2;durP2;ratioP2
8254;SDS011;4167;48.162;11.542;2023-06-14T00:10:50;207.37;;;58.17;;
8254;SDS011;4167;48.162;11.542;2023-06-14T00:13:17;355.30;;;68.43;;
8254;SDS011;4167;48.162;11.542;2023-06-14T00:15:44;219.77;;;59.50;;
8254;SDS011;4167;48.162;11.542;2023-06-14T00:18:11;184.60;;;57.97;;
8254;SDS011;4167;48.162;11.542;2023-06-14T00:20:37;181.90;;;56.97;;
8254;SDS011;4167;48.162;11.542;2023-06-14T00:23:04;218.27;;;59.40;;
8254;SDS011;4167;48.162;11.542;2023-06-14T00:25:31;186.67;;;57.93;;
8254;SDS011;4167;48.162;11.542;2023-06-14T00:27:58;198.57;;;58.07;;
8254;SDS011;4167;48.162;11.542;2023-06-14T00:30:25;217.10;;;59.30;;
8254;SDS011;4167;48.162;11.542;2023-06-14T00:32:55;233.23;;;60.30;;
8254;SDS011;4167;48.162;11.542;2023-06-14T00:35:22;161.00;;;55.60;;
8254;SDS011;4167;48.162;11.542;2023-06-14T00:37:48;262.00;;;61.90;;
8254;SDS011;4167;48.162;11.542;2023-06-14T00:40:15;239.67;;;61.00;;
8254;SDS011;4167;48.162;11.542;2023-06-14T00:42:41;180.83;;;57.00;;
8254;SDS011;4167;48.162;11.542;2023-06-14T00:45:10;193.40;;;58.43;;
8254;SDS011;4167;48.162;11.542;2023-06-14T00:47:36;239.57;;;60.27;;
8254;SDS011;4167;48.162;11.542;2023-06-14T00:50:04;190.57;;;56.67;;
8254;SDS011;4167;48.162;11.542;2023-06-14T00:52:33;163.03;;;55.23;;
8254;SDS011;4167;48.162;11.542;2023-06-14T00:54:59;165.17;;;56.10;;
8254;SDS011;4167;48.162;11.542;2023-06-14T00:57:27;202.27;;;57.83;;
8254;SDS011;4167;48.162;11.542;2023-06-14T00:59:54;222.20;;;59.23;;
8254;SDS011;4167;48.162;11.542;2023-06-14T01:02:22;170.20;;;56.33;;
8254;SDS011;4167;48.162;11.542;2023-06-14T01:04:50;297.87;;;64.03;;
8254;SDS011;4167;48.162;11.542;2023-06-14T01:07:18;147.93;;;54.57;;
8254;SDS011;4167;48.162;11.542;2023-06-14T01:09:55;262.20;;;61.53;;
8254;SDS011;4167;48.162;11.542;2023-06-14T01:12:29;153.17;;;54.70;;
8254;SDS011;4167;48.162;11.542;2023-06-14T01:14:59;205.23;;;56.97;;
8254;SDS011;4167;48.162;11.542;2023-06-14T01:17:28;161.50;;;55.63;;
8254;SDS011;4167;48.162;11.542;2023-06-14T01:19:56;272.20;;;61.90;;
8254;SDS011;4167;48.162;11.542;2023-06-14T01:22:24;176.53;;;56.43;;
8254;SDS011;4167;48.162;11.542;2023-06-14T01:24:53;225.57;;;59.23;;
8254;SDS011;4167;48.162;11.542;2023-06-14T01:27:21;161.43;;;55.40;;
8254;SDS011;4167;48.162;11.542;2023-06-14T01:29:48;243.43;;;60.13;;
8254;SDS011;4167;48.162;11.542;2023-06-14T01:32:16;177.90;;;56.47;;
8254;SDS011;4167;48.162;11.542;2023-06-14T01:34:43;237.07;;;59.77;;
8254;SDS011;4167;48.162;11.542;2023-06-14T01:37:10;161.50;;;55.33;;
8254;SDS011;4167;48.162;11.542;2023-06-14T01:39:38;170.77;;;55.27;;
8254;SDS011;4167;48.162;11.542;2023-06-14T01:42:06;236.10;;;59.53;;
8254;SDS011;4167;48.162;11.542;2023-06-14T01:44:33;216.57;;;58.30;;
8254;SDS011;4167;48.162;11.542;2023-06-14T01:46:59;209.73;;;57.97;;
8254;SDS011;4167;48.162;11.542;2023-06-14T01:49:26;213.37;;;57.43;;
8254;SDS011;4167;48.162;11.542;2023-06-14T01:51:52;258.73;;;60.63;;
8254;SDS011;4167;48.162;11.542;2023-06-14T01:54:19;172.83;;;55.80;;
8254;SDS011;4167;48.162;11.542;2023-06-14T01:56:46;213.63;;;58.23;;
8254;SDS011;4167;48.162;11.542;2023-06-14T01:59:14;219.27;;;57.77;;
8254;SDS011;4167;48.162;11.542;2023-06-14T02:01:41;221.60;;;58.40;;
8254;SDS011;4167;48.162;11.542;2023-06-14T02:04:07;213.17;;;57.43;;
8254;SDS011;4167;48.162;11.542;2023-06-14T02:06:34;182.03;;;56.17;;
8254;SDS011;4167;48.162;11.542;2023-06-14T02:09:00;254.43;;;60.63;;
8254;SDS011;4167;48.162;11.542;2023-06-14T02:11:27;236.60;;;59.57;;
8254;SDS011;4167;48.162;11.542;2023-06-14T02:13:54;272.03;;;61.07;;
8254;SDS011;4167;48.162;11.542;2023-06-14T02:16:22;178.17;;;56.20;;
8254;SDS011;4167;48.162;11.542;2023-06-14T02:18:49;223.40;;;57.80;;
8254;SDS011;4167;48.162;11.542;2023-06-14T02:21:16;126.07;;;53.37;;
8254;SDS011;4167;48.162;11.542;2023-06-14T02:23:43;207.33;;;57.90;;
8254;SDS011;4167;48.162;11.542;2023-06-14T02:26:10;166.37;;;55.40;;
8254;SDS011;4167;48.162;11.542;2023-06-14T02:28:36;195.23;;;56.80;;
8254;SDS011;4167;48.162;11.542;2023-06-14T02:31:03;193.07;;;57.33;;
8254;SDS011;4167;48.162;11.542;2023-06-14T02:33:30;188.27;;;56.87;;
8254;SDS011;4167;48.162;11.542;2023-06-14T02:35:57;220.80;;;58.53;;
8254;SDS011;4167;48.162;11.542;2023-06-14T02:38:23;183.83;;;56.20;;
8254;SDS011;4167;48.162;11.542;2023-06-14T02:40:50;230.40;;;58.67;;
8254;SDS011;4167;48.162;11.542;2023-06-14T02:43:16;167.57;;;55.07;;
8254;SDS011;4167;48.162;11.542;2023-06-14T02:45:43;154.43;;;55.13;;
8254;SDS011;4167;48.162;11.542;2023-06-14T02:48:09;165.50;;;55.37;;
8254;SDS011;4167;48.162;11.542;2023-06-14T02:50:37;194.83;;;56.73;;
8254;SDS011;4167;48.162;11.542;2023-06-14T02:53:04;299.17;;;63.57;;
8254;SDS011;4167;48.162;11.542;2023-06-14T02:55:31;257.40;;;61.40;;
8254;SDS011;4167;48.162;11.542;2023-06-14T02:57:58;279.50;;;61.27;;
8254;SDS011;4167;48.162;11.542;2023-06-14T03:00:24;248.70;;;60.23;;
8254;SDS011;4167;48.162;11.542;2023-06-14T03:02:51;276.53;;;62.20;;
8254;SDS011;4167;48.162;11.542;2023-06-14T03:05:19;267.63;;;63.00;;
8254;SDS011;4167;48.162;11.542;2023-06-14T03:07:48;201.77;;;57.30;;
8254;SDS011;4167;48.162;11.542;2023-06-14T03:10:15;244.57;;;61.50;;
8254;SDS011;4167;48.162;11.542;2023-06-14T03:12:42;234.33;;;60.20;;
8254;SDS011;4167;48.162;11.542;2023-06-14T03:15:09;222.93;;;59.63;;
8254;SDS011;4167;48.162;11.542;2023-06-14T03:17:36;112.10;;;52.07;;
8254;SDS011;4167;48.162;11.542;2023-06-14T03:20:04;186.87;;;56.27;;
8254;SDS011;4167;48.162;11.542;2023-06-14T03:22:31;171.20;;;55.77;;
8254;SDS011;4167;48.162;11.542;2023-06-14T03:25:00;301.17;;;63.63;;
8254;SDS011;4167;48.162;11.542;2023-06-14T03:27:29;178.90;;;55.57;;
8254;SDS011;4167;48.162;11.542;2023-06-14T03:29:55;221.53;;;58.83;;
8254;SDS011;4167;48.162;11.542;2023-06-14T03:32:22;159.23;;;55.37;;
8254;SDS011;4167;48.162;11.542;2023-06-14T03:34:48;291.37;;;63.37;;
8254;SDS011;4167;48.162;11.542;2023-06-14T03:37:16;168.07;;;56.13;;
8254;SDS011;4167;48.162;11.542;2023-06-14T03:39:42;155.10;;;54.90;;
8254;SDS011;4167;48.162;11.542;2023-06-14T03:42:13;192.60;;;57.27;;
8254;SDS011;4167;48.162;11.542;2023-06-14T03:44:40;234.57;;;60.23;;
8254;SDS011;4167;48.162;11.542;2023-06-14T03:47:06;168.40;;;56.80;;
8254;SDS011;4167;48.162;11.542;2023-06-14T03:49:33;224.60;;;60.53;;
8254;SDS011;4167;48.162;11.542;2023-06-14T03:52:00;208.23;;;60.03;;
8254;SDS011;4167;48.162;11.542;2023-06-14T03:54:27;169.83;;;58.00;;
8254;SDS011;4167;48.162;11.542;2023-06-14T03:56:53;272.43;;;64.63;;
8254;SDS011;4167;48.162;11.542;2023-06-14T03:59:23;231.83;;;62.00;;
8254;SDS011;4167;48.162;11.542;2023-06-14T04:01:50;231.10;;;62.90;;
8254;SDS011;4167;48.162;11.542;2023-06-14T04:04:18;205.83;;;61.43;;
8254;SDS011;4167;48.162;11.542;2023-06-14T04:06:46;198.27;;;61.63;;
8254;SDS011;4167;48.162;11.542;2023-06-14T04:09:13;188.40;;;60.83;;
8254;SDS011;4167;48.162;11.542;2023-06-14T04:11:39;163.43;;;60.27;;
8254;SDS011;4167;48.162;11.542;2023-06-14T04:14:06;198.50;;;63.50;;
8254;SDS011;4167;48.162;11.542;2023-06-14T04:16:34;232.57;;;65.13;;
8254;SDS011;4167;48.162;11.542;2023-06-14T04:19:00;232.17;;;65.80;;
8254;SDS011;4167;48.162;11.542;2023-06-14T04:21:27;198.73;;;64.17;;
8254;SDS011;4167;48.162;11.542;2023-06-14T04:23:53;248.48;;;68.15;;
8254;SDS011;4167;48.162;11.542;2023-06-14T04:26:20;187.93;;;64.15;;
8254;SDS011;4167;48.162;11.542;2023-06-14T04:28:48;240.80;;;68.70;;
8254;SDS011;4167;48.162;11.542;2023-06-14T04:31:15;193.93;;;66.32;;
8254;SDS011;4167;48.162;11.542;2023-06-14T04:33:43;193.63;;;65.78;;
8254;SDS011;4167;48.162;11.542;2023-06-14T04:36:11;177.85;;;65.55;;
8254;SDS011;4167;48.162;11.542;2023-06-14T04:38:38;248.80;;;71.03;;
8254;SDS011;4167;48.162;11.542;2023-06-14T04:41:04;242.43;;;70.40;;
8254;SDS011;4167;48.162;11.542;2023-06-14T04:43:31;203.10;;;68.07;;
8254;SDS011;4167;48.162;11.542;2023-06-14T04:46:02;304.30;;;75.05;;
8254;SDS011;4167;48.162;11.542;2023-06-14T04:48:30;220.65;;;69.32;;
8254;SDS011;4167;48.162;11.542;2023-06-14T04:50:58;262.88;;;72.60;;
8254;SDS011;4167;48.162;11.542;2023-06-14T04:53:25;221.77;;;71.00;;
8254;SDS011;4167;48.162;11.542;2023-06-14T04:55:54;229.73;;;71.15;;
8254;SDS011;4167;48.162;11.542;2023-06-14T04:58:20;213.20;;;70.93;;
8254;SDS011;4167;48.162;11.542;2023-06-14T05:00:47;211.98;;;70.15;;
8254;SDS011;4167;48.162;11.542;2023-06-14T05:03:13;207.73;;;69.30;;
8254;SDS011;4167;48.162;11.542;2023-06-14T05:05:40;167.82;;;66.68;;
8254;SDS011;4167;48.162;11.542;2023-06-14T05:08:08;240.48;;;70.93;;
8254;SDS011;4167;48.162;11.542;2023-06-14T05:10:34;201.95;;;67.35;;
8254;SDS011;4167;48.162;11.542;2023-06-14T05:13:01;269.08;;;71.15;;
8254;SDS011;4167;48.162;11.542;2023-06-14T05:15:27;278.63;;;71.43;;
8254;SDS011;4167;48.162;11.542;2023-06-14T05:17:54;276.50;;;71.47;;
8254;SDS011;4167;48.162;11.542;2023-06-14T05:20:21;205.30;;;66.68;;
8254;SDS011;4167;48.162;11.542;2023-06-14T05:22:49;238.73;;;68.15;;
8254;SDS011;4167;48.162;11.542;2023-06-14T05:25:18;219.65;;;68.35;;
8254;SDS011;4167;48.162;11.542;2023-06-14T05:27:45;270.52;;;70.28;;
8254;SDS011;4167;48.162;11.542;2023-06-14T05:30:12;335.60;;;76.28;;
8254;SDS011;4167;48.162;11.542;2023-06-14T05:32:39;275.58;;;71.68;;
8254;SDS011;4167;48.162;11.542;2023-06-14T05:35:06;348.23;;;75.38;;
8254;SDS011;4167;48.162;11.542;2023-06-14T05:37:33;283.90;;;71.50;;
8254;SDS011;4167;48.162;11.542;2023-06-14T05:39:59;282.92;;;72.18;;
8254;SDS011;4167;48.162;11.542;2023-06-14T05:42:27;319.35;;;75.05;;
8254;SDS011;4167;48.162;11.542;2023-06-14T05:44:53;299.60;;;72.82;;
8254;SDS011;4167;48.162;11.542;2023-06-14T05:47:20;247.10;;;70.28;;
8254;SDS011;4167;48.162;11.542;2023-06-14T05:49:47;283.65;;;70.53;;
8254;SDS011;4167;48.162;11.542;2023-06-14T05:52:13;219.13;;;66.80;;
8254;SDS011;4167;48.162;11.542;2023-06-14T05:54:40;268.65;;;69.97;;
8254;SDS011;4167;48.162;11.542;2023-06-14T05:57:06;255.15;;;68.15;;
8254;SDS011;4167;48.162;11.542;2023-06-14T05:59:34;330.20;;;73.75;;
8254;SDS011;4167;48.162;11.542;2023-06-14T06:02:01;335.75;;;75.13;;
8254;SDS011;4167;48.162;11.542;2023-06-14T06:04:27;241.82;;;69.65;;
8254;SDS011;4167;48.162;11.542;2023-06-14T06:06:54;313.05;;;75.78;;
8254;SDS011;4167;48.162;11.542;2023-06-14T06:09:20;288.35;;;74.20;;
8254;SDS011;4167;48.162;11.542;2023-06-14T06:11:47;232.63;;;71.93;;
8254;SDS011;4167;48.162;11.542;2023-06-14T06:14:13;239.50;;;73.05;;
8254;SDS011;4167;48.162;11.542;2023-06-14T06:16:41;200.85;;;70.65;;
8254;SDS011;4167;48.162;11.542;2023-06-14T06:19:07;215.40;;;71.60;;
8254;SDS011;4167;48.162;11.542;2023-06-14T06:21:34;211.63;;;72.30;;
8254;SDS011;4167;48.162;11.542;2023-06-14T06:24:00;244.80;;;74.95;;
8254;SDS011;4167;48.162;11.542;2023-06-14T06:26:30;232.27;;;74.85;;
8254;SDS011;4167;48.162;11.542;2023-06-14T06:28:57;249.60;;;76.25;;
8254;SDS011;4167;48.162;11.542;2023-06-14T06:31:23;251.40;;;76.70;;
8254;SDS011;4167;48.162;11.542;2023-06-14T06:33:53;233.05;;;74.57;;
8254;SDS011;4167;48.162;11.542;2023-06-14T06:36:20;236.57;;;74.78;;
8254;SDS011;4167;48.162;11.542;2023-06-14T06:38:47;256.13;;;77.13;;
8254;SDS011;4167;48.162;11.542;2023-06-14T06:41:13;234.85;;;74.90;;
8254;SDS011;4167;48.162;11.542;2023-06-14T06:43:40;220.07;;;74.28;;
8254;SDS011;4167;48.162;11.542;2023-06-14T06:46:06;252.60;;;77.53;;
8254;SDS011;4167;48.162;11.542;2023-06-14T06:48:33;263.50;;;77.68;;
8254;SDS011;4167;48.162;11.542;2023-06-14T06:51:01;266.33;;;76.90;;
8254;SDS011;4167;48.162;11.542;2023-06-14T06:53:27;229.75;;;74.90;;
8254;SDS011;4167;48.162;11.542;2023-06-14T06:55:54;265.17;;;78.15;;
8254;SDS011;4167;48.162;11.542;2023-06-14T06:58:20;222.73;;;75.20;;
8254;SDS011;4167;48.162;11.542;2023-06-14T07:00:47;231.20;;;76.32;;
8254;SDS011;4167;48.162;11.542;2023-06-14T07:03:13;230.27;;;75.97;;
8254;SDS011;4167;48.162;11.542;2023-06-14T07:05:40;190.65;;;73.32;;
8254;SDS011;4167;48.162;11.542;2023-06-14T07:08:08;234.63;;;76.03;;
8254;SDS011;4167;48.162;11.542;2023-06-14T07:10:34;253.63;;;77.10;;
8254;SDS011;4167;48.162;11.542;2023-06-14T07:13:02;240.77;;;76.10;;
8254;SDS011;4167;48.162;11.542;2023-06-14T07:15:29;210.40;;;74.38;;
8254;SDS011;4167;48.162;11.542;2023-06-14T07:17:55;221.02;;;75.38;;
8254;SDS011;4167;48.162;11.542;2023-06-14T07:20:24;220.52;;;75.20;;
8254;SDS011;4167;48.162;11.542;2023-06-14T07:22:51;233.02;;;76.30;;
8254;SDS011;4167;48.162;11.542;2023-06-14T07:25:19;234.05;;;77.25;;
8254;SDS011;4167;48.162;11.542;2023-06-14T07:27:47;178.25;;;73.38;;
8254;SDS011;4167;48.162;11.542;2023-06-14T07:30:13;270.27;;;78.35;;
8254;SDS011;4167;48.162;11.542;2023-06-14T07:32:40;222.07;;;75.13;;
8254;SDS011;4167;48.162;11.542;2023-06-14T07:35:07;200.90;;;73.95;;
8254;SDS011;4167;48.162;11.542;2023-06-14T07:37:33;242.18;;;76.10;;
8254;SDS011;4167;48.162;11.542;2023-06-14T07:40:01;227.73;;;74.85;;
8254;SDS011;4167;48.162;11.542;2023-06-14T07:42:33;217.20;;;74.53;;
8254;SDS011;4167;48.162;11.542;2023-06-14T07:44:59;249.85;;;77.97;;
8254;SDS011;4167;48.162;11.542;2023-06-14T07:47:26;227.48;;;76.20;;
8254;SDS011;4167;48.162;11.542;2023-06-14T07:49:52;261.83;;;78.28;;
8254;SDS011;4167;48.162;11.542;2023-06-14T07:52:19;220.77;;;76.28;;
8254;SDS011;4167;48.162;11.542;2023-06-14T07:54:45;224.57;;;76.10;;
8254;SDS011;4167;48.162;11.542;2023-06-14T07:57:12;207.68;;;74.97;;
8254;SDS011;4167;48.162;11.542;2023-06-14T07:59:39;264.23;;;79.68;;
8254;SDS011;4167;48.162;11.542;2023-06-14T08:02:06;246.70;;;78.57;;
8254;SDS011;4167;48.162;11.542;2023-06-14T08:04:32;274.63;;;79.35;;
8254;SDS011;4167;48.162;11.542;2023-06-14T08:06:59;260.13;;;79.00;;
8254;SDS011;4167;48.162;11.542;2023-06-14T08:09:25;264.25;;;79.10;;
8254;SDS011;4167;48.162;11.542;2023-06-14T08:11:53;266.45;;;80.35;;
8254;SDS011;4167;48.162;11.542;2023-06-14T08:14:20;211.98;;;75.78;;
8254;SDS011;4167;48.162;11.542;2023-06-14T08:16:47;244.25;;;77.60;;
8254;SDS011;4167;48.162;11.542;2023-06-14T08:19:14;222.73;;;74.88;;
8254;SDS011;4167;48.162;11.542;2023-06-14T08:21:41;220.70;;;75.03;;
8254;SDS011;4167;48.162;11.542;2023-06-14T08:24:11;242.68;;;76.10;;
8254;SDS011;4167;48.162;11.542;2023-06-14T08:26:38;197.98;;;72.90;;
8254;SDS011;4167;48.162;11.542;2023-06-14T08:29:04;226.93;;;75.43;;
8254;SDS011;4167;48.162;11.542;2023-06-14T08:31:31;216.88;;;75.60;;
8254;SDS011;4167;48.162;11.542;2023-06-14T08:33:59;239.05;;;74.80;;
8254;SDS011;4167;48.162;11.542;2023-06-14T08:36:26;275.90;;;77.95;;
8254;SDS011;4167;48.162;11.542;2023-06-14T08:38:52;282.88;;;76.70;;
8254;SDS011;4167;48.162;11.542;2023-06-14T08:41:20;293.20;;;75.55;;
8254;SDS011;4167;48.162;11.542;2023-06-14T08:43:47;313.67;;;75.95;;
8254;SDS011;4167;48.162;11.542;2023-06-14T08:46:14;234.00;;;71.32;;
8254;SDS011;4167;48.162;11.542;2023-06-14T08:48:44;218.90;;;69.05;;
8254;SDS011;4167;48.162;11.542;2023-06-14T08:51:14;253.48;;;71.15;;
8254;SDS011;4167;48.162;11.542;2023-06-14T08:53:41;253.05;;;72.40;;
8254;SDS011;4167;48.162;11.542;2023-06-14T08:56:09;231.45;;;68.85;;
8254;SDS011;4167;48.162;11.542;2023-06-14T08:58:38;255.30;;;69.28;;
8254;SDS011;4167;48.162;11.542;2023-06-14T09:01:08;262.63;;;70.05;;
8254;SDS011;4167;48.162;11.542;2023-06-14T09:03:37;218.20;;;67.40;;
8254;SDS011;4167;48.162;11.542;2023-06-14T09:06:06;257.85;;;68.85;;
8254;SDS011;4167;48.162;11.542;2023-06-14T09:08:35;279.42;;;70.43;;
8254;SDS011;4167;48.162;11.542;2023-06-14T09:11:01;219.55;;;65.07;;
8254;SDS011;4167;48.162;11.542;2023-06-14T09:13:28;236.15;;;65.63;;
8254;SDS011;4167;48.162;11.542;2023-06-14T09:15:54;224.70;;;65.18;;
8254;SDS011;4167;48.162;11.542;2023-06-14T09:18:21;212.50;;;65.07;;
8254;SDS011;4167;48.162;11.542;2023-06-14T09:20:47;234.70;;;66.25;;
8254;SDS011;4167;48.162;11.542;2023-06-14T09:23:14;209.90;;;64.27;;
8254;SDS011;4167;48.162;11.542;2023-06-14T09:25:48;278.08;;;67.70;;
8254;SDS011;4167;48.162;11.542;2023-06-14T09:28:14;215.98;;;64.90;;
8254;SDS011;4167;48.162;11.542;2023-06-14T09:30:41;213.68;;;63.85;;
8254;SDS011;4167;48.162;11.542;2023-06-14T09:33:07;238.10;;;65.68;;
8254;SDS011;4167;48.162;11.542;2023-06-14T09:35:34;237.32;;;65.88;;
8254;SDS011;4167;48.162;11.542;2023-06-14T09:38:01;229.10;;;64.93;;
8254;SDS011;4167;48.162;11.542;2023-06-14T09:40:27;233.60;;;64.70;;
8254;SDS011;4167;48.162;11.542;2023-06-14T09:42:55;208.05;;;63.47;;
8254;SDS011;4167;48.162;11.542;2023-06-14T09:45:23;244.27;;;66.07;;
8254;SDS011;4167;48.162;11.542;2023-06-14T09:47:51;209.57;;;63.07;;
8254;SDS011;4167;48.162;11.542;2023-06-14T09:50:17;209.37;;;63.43;;
8254;SDS011;4167;48.162;11.542;2023-06-14T09:52:44;193.07;;;63.07;;
8254;SDS011;4167;48.162;11.542;2023-06-14T09:55:12;238.93;;;66.55;;
8254;SDS011;4167;48.162;11.542;2023-06-14T09:57:40;209.57;;;65.30;;
8254;SDS011;4167;48.162;11.542;2023-06-14T10:00:09;280.30;;;68.67;;
8254;SDS011;4167;48.162;11.542;2023-06-14T10:02:37;212.13;;;63.93;;
8254;SDS011;4167;48.162;11.542;2023-06-14T10:05:04;246.25;;;65.80;;
8254;SDS011;4167;48.162;11.542;2023-06-14T10:07:32;224.20;;;64.25;;
8254;SDS011;4167;48.162;11.542;2023-06-14T10:10:01;323.80;;;69.87;;
8254;SDS011;4167;48.162;11.542;2023-06-14T10:12:28;263.20;;;66.50;;
8254;SDS011;4167;48.162;11.542;2023-06-14T10:14:55;273.08;;;66.70;;
8254;SDS011;4167;48.162;11.542;2023-06-14T10:17:24;202.83;;;62.37;;
8254;SDS011;4167;48.162;11.542;2023-06-14T10:19:58;287.00;;;68.33;;
8254;SDS011;4167;48.162;11.542;2023-06-14T10:22:34;232.38;;;64.72;;
8254;SDS011;4167;48.162;11.542;2023-06-14T10:25:06;256.17;;;65.97;;
8254;SDS011;4167;48.162;11.542;2023-06-14T10:27:37;211.03;;;63.13;;
8254;SDS011;4167;48.162;11.542;2023-06-14T10:30:04;208.67;;;63.27;;
8254;SDS011;4167;48.162;11.542;2023-06-14T10:32:34;248.97;;;65.40;;
8254;SDS011;4167;48.162;11.542;2023-06-14T10:35:01;206.73;;;63.53;;
8254;SDS011;4167;48.162;11.542;2023-06-14T10:37:31;217.90;;;63.93;;
8254;SDS011;4167;48.162;11.542;2023-06-14T10:39:57;245.07;;;65.05;;
8254;SDS011;4167;48.162;11.542;2023-06-14T10:42:27;251.50;;;65.90;;
8254;SDS011;4167;48.162;11.542;2023-06-14T10:44:55;246.98;;;64.55;;
8254;SDS011;4167;48.162;11.542;2023-06-14T10:47:23;235.53;;;65.37;;
8254;SDS011;4167;48.162;11.542;2023-06-14T10:49:53;218.60;;;63.87;;
8254;SDS011;4167;48.162;11.542;2023-06-14T10:52:24;232.10;;;64.50;;
8254;SDS011;4167;48.162;11.542;2023-06-14T10:57:39;195.57;;;61.80;;
8254;SDS011;4167;48.162;11.542;2023-06-14T11:00:07;277.10;;;66.87;;
8254;SDS011;4167;48.162;11.542;2023-06-14T11:05:51;220.63;;;63.30;;
8254;SDS011;4167;48.162;11.542;2023-06-14T11:08:24;240.57;;;63.90;;
8254;SDS011;4167;48.162;11.542;2023-06-14T11:10:54;244.90;;;64.47;;
8254;SDS011;4167;48.162;11.542;2023-06-14T11:13:21;202.80;;;61.70;;
8254;SDS011;4167;48.162;11.542;2023-06-14T11:15:50;207.50;;;62.83;;
8254;SDS011;4167;48.162;11.542;2023-06-14T11:18:21;183.83;;;61.73;;
8254;SDS011;4167;48.162;11.542;2023-06-14T11:20:50;239.47;;;64.70;;
8254;SDS011;4167;48.162;11.542;2023-06-14T11:23:17;211.17;;;62.77;;
8254;SDS011;4167;48.162;11.542;2023-06-14T11:25:49;230.17;;;64.53;;
8254;SDS011;4167;48.162;11.542;2023-06-14T11:28:16;246.83;;;65.07;;
8254;SDS011;4167;48.162;11.542;2023-06-14T11:30:44;232.33;;;63.90;;
8254;SDS011;4167;48.162;11.542;2023-06-14T11:33:11;269.23;;;66.67;;
8254;SDS011;4167;48.162;11.542;2023-06-14T11:35:37;214.10;;;63.63;;
8254;SDS011;4167;48.162;11.542;2023-06-14T11:38:07;259.53;;;66.17;;
8254;SDS011;4167;48.162;11.542;2023-06-14T11:40:37;229.20;;;64.23;;
8254;SDS011;4167;48.162;11.542;2023-06-14T11:43:04;265.07;;;66.03;;
8254;SDS011;4167;48.162;11.542;2023-06-14T11:45:30;241.27;;;65.10;;
8254;SDS011;4167;48.162;11.542;2023-06-14T11:47:58;287.53;;;67.97;;
8254;SDS011;4167;48.162;11.542;2023-06-14T11:50:25;238.23;;;64.43;;
8254;SDS011;4167;48.162;11.542;2023-06-14T11:52:53;248.77;;;65.53;;
8254;SDS011;4167;48.162;11.542;2023-06-14T11:55:21;296.70;;;68.93;;
8254;SDS011;4167;48.162;11.542;2023-06-14T11:57:48;228.23;;;64.27;;
8254;SDS011;4167;48.162;11.542;2023-06-14T12:00:14;248.83;;;66.30;;
8254;SDS011;4167;48.162;11.542;2023-06-14T12:02:42;246.37;;;65.10;;
8254;SDS011;4167;48.162;11.542;2023-06-14T12:05:09;216.47;;;63.97;;
8254;SDS011;4167;48.162;11.542;2023-06-14T12:07:36;212.87;;;63.80;;
8254;SDS011;4167;48.162;11.542;2023-06-14T12:10:06;219.60;;;63.93;;
8254;SDS011;4167;48.162;11.542;2023-06-14T12:12:36;214.67;;;63.40;;
8254;SDS011;4167;48.162;11.542;2023-06-14T12:15:04;248.18;;;65.80;;
8254;SDS011;4167;48.162;11.542;2023-06-14T12:17:32;191.40;;;62.92;;
8254;SDS011;4167;48.162;11.542;2023-06-14T12:20:04;250.68;;;66.53;;
8254;SDS011;4167;48.162;11.542;2023-06-14T12:22:33;235.60;;;65.57;;
8254;SDS011;4167;48.162;11.542;2023-06-14T12:24:59;254.15;;;66.95;;
8254;SDS011;4167;48.162;11.542;2023-06-14T12:27:28;226.65;;;65.32;;
8254;SDS011;4167;48.162;11.542;2023-06-14T12:30:02;260.90;;;67.57;;
8254;SDS011;4167;48.162;11.542;2023-06-14T12:32:30;236.15;;;65.60;;
8254;SDS011;4167;48.162;11.542;2023-06-14T12:34:56;319.50;;;70.95;;
8254;SDS011;4167;48.162;11.542;2023-06-14T12:37:23;294.70;;;69.40;;
8254;SDS011;4167;48.162;11.542;2023-06-14T12:39:50;293.13;;;69.43;;
8254;SDS011;4167;48.162;11.542;2023-06-14T12:42:16;237.82;;;65.72;;
8254;SDS011;4167;48.162;11.542;2023-06-14T12:44:43;271.25;;;67.90;;
8254;SDS011;4167;48.162;11.542;2023-06-14T12:47:11;278.40;;;69.03;;
8254;SDS011;4167;48.162;11.542;2023-06-14T12:49:38;328.95;;;70.93;;
8254;SDS011;4167;48.162;11.542;2023-06-14T12:52:05;242.88;;;66.50;;
8254;SDS011;4167;48.162;11.542;2023-06-14T12:54:32;292.80;;;69.03;;
8254;SDS011;4167;48.162;11.542;2023-06-14T12:56:58;344.98;;;72.35;;
8254;SDS011;4167;48.162;11.542;2023-06-14T12:59:25;275.92;;;68.78;;
8254;SDS011;4167;48.162;11.542;2023-06-14T13:01:57;243.90;;;67.07;;
8254;SDS011;4167;48.162;11.542;2023-06-14T13:04:25;308.42;;;69.82;;
8254;SDS011;4167;48.162;11.542;2023-06-14T13:06:52;237.27;;;66.57;;
8254;SDS011;4167;48.162;11.542;2023-06-14T13:09:18;345.25;;;73.80;;
8254;SDS011;4167;48.162;11.542;2023-06-14T13:11:45;242.15;;;66.30;;
8254;SDS011;4167;48.162;11.542;2023-06-14T13:14:12;370.77;;;74.05;;
8254;SDS011;4167;48.162;11.542;2023-06-14T13:16:38;257.58;;;66.97;;
8254;SDS011;4167;48.162;11.542;2023-06-14T13:19:05;253.10;;;66.88;;
8254;SDS011;4167;48.162;11.542;2023-06-14T13:21:33;211.55;;;65.00;;
8254;SDS011;4167;48.162;11.542;2023-06-14T13:23:59;266.50;;;67.68;;
8254;SDS011;4167;48.162;11.542;2023-06-14T13:26:26;254.70;;;66.40;;
8254;SDS011;4167;48.162;11.542;2023-06-14T13:28:52;221.52;;;64.18;;
8254;SDS011;4167;48.162;11.542;2023-06-14T13:31:19;229.70;;;66.05;;
8254;SDS011;4167;48.162;11.542;2023-06-14T13:33:45;200.70;;;64.22;;
8254;SDS011;4167;48.162;11.542;2023-06-14T13:36:12;274.63;;;68.95;;
8254;SDS011;4167;48.162;11.542;2023-06-14T13:38:40;227.77;;;66.07;;
8254;SDS011;4167;48.162;11.542;2023-06-14T13:41:06;246.63;;;67.20;;
8254;SDS011;4167;48.162;11.542;2023-06-14T13:43:32;285.85;;;68.60;;
8254;SDS011;4167;48.162;11.542;2023-06-14T13:45:59;234.98;;;65.57;;
8254;SDS011;4167;48.162;11.542;2023-06-14T13:48:25;271.13;;;68.05;;
8254;SDS011;4167;48.162;11.542;2023-06-14T13:50:52;279.42;;;68.78;;
8254;SDS011;4167;48.162;11.542;2023-06-14T13:53:18;210.93;;;64.82;;
8254;SDS011;4167;48.162;11.542;2023-06-14T13:55:46;295.42;;;69.72;;
8254;SDS011;4167;48.162;11.542;2023-06-14T13:58:13;271.92;;;67.10;;
8254;SDS011;4167;48.162;11.542;2023-06-14T14:00:40;238.13;;;64.77;;
8254;SDS011;4167;48.162;11.542;2023-06-14T14:03:06;221.30;;;65.03;;
8254;SDS011;4167;48.162;11.542;2023-06-14T14:05:34;181.40;;;62.08;;
8254;SDS011;4167;48.162;11.542;2023-06-14T14:08:00;301.00;;;69.60;;
8254;SDS011;4167;48.162;11.542;2023-06-14T14:10:27;244.65;;;65.45;;
8254;SDS011;4167;48.162;11.542;2023-06-14T14:12:55;234.33;;;65.83;;
8254;SDS011;4167;48.162;11.542;2023-06-14T14:15:21;261.50;;;67.55;;
8254;SDS011;4167;48.162;11.542;2023-06-14T14:17:48;243.53;;;65.03;;
8254;SDS011;4167;48.162;11.542;2023-06-14T14:20:15;309.13;;;70.27;;
8254;SDS011;4167;48.162;11.542;2023-06-14T14:22:42;250.45;;;66.50;;
8254;SDS011;4167;48.162;11.542;2023-06-14T14:25:08;299.77;;;70.25;;
8254;SDS011;4167;48.162;11.542;2023-06-14T14:27:35;237.30;;;65.45;;
8254;SDS011;4167;48.162;11.542;2023-06-14T14:30:03;254.10;;;66.53;;
8254;SDS011;4167;48.162;11.542;2023-06-14T14:32:30;209.32;;;64.10;;
8254;SDS011;4167;48.162;11.542;2023-06-14T14:34:57;258.13;;;67.43;;
8254;SDS011;4167;48.162;11.542;2023-06-14T14:37:23;351.85;;;73.10;;